sensor_id;sensor_type;location;lat;lon;timestamp;pressure;altitude;pressure_sealevel;temperature
11926;BMP180;6022;48.768;18.608;2023-07-24T00:01:55;98095.03;;;20.31
11926;BMP180;6022;48.768;18.608;2023-07-24T00:04:23;98096.16;;;20.21
11926;BMP180;6022;48.768;18.608;2023-07-24T00:06:50;98097.94;;;20.20
11926;BMP180;6022;48.768;18.608;2023-07-24T00:09:17;98092.00;;;20.12
11926;BMP180;6022;48.768;18.608;2023-07-24T00:11:44;98085.56;;;20.08
11926;BMP180;6022;48.768;18.608;2023-07-24T00:14:12;98085.56;;;20.00
11926;BMP180;6022;48.768;18.608;2023-07-24T00:16:39;98078.81;;;19.91
11926;BMP180;6022;48.768;18.608;2023-07-24T00:19:06;98078.81;;;19.91
11926;BMP180;6022;48.768;18.608;2023-07-24T00:21:33;98080.44;;;19.92
11926;BMP180;6022;48.768;18.608;2023-07-24T00:24:00;98086.88;;;19.80
11926;BMP180;6022;48.768;18.608;2023-07-24T00:26:28;98086.22;;;19.78
11926;BMP180;6022;48.768;18.608;2023-07-24T00:28:59;98081.88;;;19.79
11926;BMP180;6022;48.768;18.608;2023-07-24T00:31:27;98081.72;;;19.80
11926;BMP180;6022;48.768;18.608;2023-07-24T00:33:54;98082.34;;;19.74
11926;BMP180;6022;48.768;18.608;2023-07-24T00:36:22;98071.75;;;19.62
11926;BMP180;6022;48.768;18.608;2023-07-24T00:38:49;98084.75;;;19.76
11926;BMP180;6022;48.768;18.608;2023-07-24T00:41:16;98066.59;;;19.77
11926;BMP180;6022;48.768;18.608;2023-07-24T00:43:43;98066.13;;;19.82
11926;BMP180;6022;48.768;18.608;2023-07-24T00:46:11;98061.59;;;19.84
11926;BMP180;6022;48.768;18.608;2023-07-24T00:48:39;98059.38;;;19.89
11926;BMP180;6022;48.768;18.608;2023-07-24T00:51:07;98062.41;;;19.92
11926;BMP180;6022;48.768;18.608;2023-07-24T00:53:34;98060.47;;;19.94
11926;BMP180;6022;48.768;18.608;2023-07-24T00:56:02;98062.41;;;20.00
11926;BMP180;6022;48.768;18.608;2023-07-24T00:58:30;98053.69;;;20.09
11926;BMP180;6022;48.768;18.608;2023-07-24T01:00:57;98057.25;;;20.16
11926;BMP180;6022;48.768;18.608;2023-07-24T01:03:34;98042.59;;;20.08
11926;BMP180;6022;48.768;18.608;2023-07-24T01:06:02;98039.19;;;20.08
11926;BMP180;6022;48.768;18.608;2023-07-24T01:08:30;98045.00;;;20.02
11926;BMP180;6022;48.768;18.608;2023-07-24T01:11:04;98041.81;;;20.00
11926;BMP180;6022;48.768;18.608;2023-07-24T01:13:40;98043.06;;;20.04
11926;BMP180;6022;48.768;18.608;2023-07-24T01:16:14;98041.97;;;20.07
11926;BMP180;6022;48.768;18.608;2023-07-24T01:18:43;98036.00;;;20.06
11926;BMP180;6022;48.768;18.608;2023-07-24T01:21:12;98035.84;;;20.08
11926;BMP180;6022;48.768;18.608;2023-07-24T01:24:14;98034.56;;;20.04
11926;BMP180;6022;48.768;18.608;2023-07-24T01:26:45;98032.47;;;19.99
11926;BMP180;6022;48.768;18.608;2023-07-24T01:29:12;98039.53;;;20.05
11926;BMP180;6022;48.768;18.608;2023-07-24T01:31:39;98033.28;;;20.00
11926;BMP180;6022;48.768;18.608;2023-07-24T01:34:07;98033.78;;;19.95
11926;BMP180;6022;48.768;18.608;2023-07-24T01:36:34;98042.47;;;19.94
11926;BMP180;6022;48.768;18.608;2023-07-24T01:39:02;98037.97;;;19.88
11926;BMP180;6022;48.768;18.608;2023-07-24T01:41:31;98037.31;;;19.94
11926;BMP180;6022;48.768;18.608;2023-07-24T01:43:59;98034.72;;;19.94
11926;BMP180;6022;48.768;18.608;2023-07-24T01:46:26;98026.38;;;19.92
11926;BMP180;6022;48.768;18.608;2023-07-24T01:48:54;98021.38;;;19.91
11926;BMP180;6022;48.768;18.608;2023-07-24T01:51:21;98023.81;;;19.84
11926;BMP180;6022;48.768;18.608;2023-07-24T01:53:49;98027.03;;;19.86
11926;BMP180;6022;48.768;18.608;2023-07-24T01:56:16;98023.47;;;19.87
11926;BMP180;6022;48.768;18.608;2023-07-24T01:58:43;98019.59;;;19.91
11926;BMP180;6022;48.768;18.608;2023-07-24T02:01:10;98024.13;;;19.97
11926;BMP180;6022;48.768;18.608;2023-07-24T02:03:37;98020.56;;;19.98
11926;BMP180;6022;48.768;18.608;2023-07-24T02:06:06;98019.59;;;19.99
11926;BMP180;6022;48.768;18.608;2023-07-24T02:08:33;98011.41;;;19.96
11926;BMP180;6022;48.768;18.608;2023-07-24T02:11:00;98015.41;;;19.98
11926;BMP180;6022;48.768;18.608;2023-07-24T02:13:27;98017.69;;;20.01
11926;BMP180;6022;48.768;18.608;2023-07-24T02:15:55;98013.00;;;19.97
11926;BMP180;6022;48.768;18.608;2023-07-24T02:18:22;98004.94;;;20.00
11926;BMP180;6022;48.768;18.608;2023-07-24T02:20:50;98012.81;;;20.06
11926;BMP180;6022;48.768;18.608;2023-07-24T02:23:18;98008.81;;;19.96
11926;BMP180;6022;48.768;18.608;2023-07-24T02:25:45;98007.72;;;19.90
11926;BMP180;6022;48.768;18.608;2023-07-24T02:28:12;98011.25;;;19.97
11926;BMP180;6022;48.768;18.608;2023-07-24T02:30:40;98008.16;;;20.02
11926;BMP180;6022;48.768;18.608;2023-07-24T02:33:07;98009.28;;;20.07
11926;BMP180;6022;48.768;18.608;2023-07-24T02:35:42;98005.41;;;20.11
11926;BMP180;6022;48.768;18.608;2023-07-24T02:38:09;98014.72;;;20.20
11926;BMP180;6022;48.768;18.608;2023-07-24T02:40:36;98014.69;;;20.28
11926;BMP180;6022;48.768;18.608;2023-07-24T02:43:04;98022.72;;;20.33
11926;BMP180;6022;48.768;18.608;2023-07-24T02:45:34;98012.75;;;20.30
11926;BMP180;6022;48.768;18.608;2023-07-24T02:48:01;98019.16;;;20.34
11926;BMP180;6022;48.768;18.608;2023-07-24T02:50:29;98019.66;;;20.37
11926;BMP180;6022;48.768;18.608;2023-07-24T02:52:57;98020.28;;;20.39
11926;BMP180;6022;48.768;18.608;2023-07-24T02:55:24;98016.56;;;20.42
11926;BMP180;6022;48.768;18.608;2023-07-24T02:57:52;98017.59;;;20.25
11926;BMP180;6022;48.768;18.608;2023-07-24T03:00:19;98026.59;;;20.29
11926;BMP180;6022;48.768;18.608;2023-07-24T03:02:47;98021.91;;;20.32
11926;BMP180;6022;48.768;18.608;2023-07-24T03:05:14;98015.63;;;20.35
11926;BMP180;6022;48.768;18.608;2023-07-24T03:07:41;98006.28;;;20.34
11926;BMP180;6022;48.768;18.608;2023-07-24T03:10:09;98011.28;;;20.35
11926;BMP180;6022;48.768;18.608;2023-07-24T03:12:36;98003.03;;;20.40
11926;BMP180;6022;48.768;18.608;2023-07-24T03:15:04;98000.81;;;20.37
11926;BMP180;6022;48.768;18.608;2023-07-24T03:17:31;98009.66;;;20.42
11926;BMP180;6022;48.768;18.608;2023-07-24T03:19:59;98000.78;;;20.45
11926;BMP180;6022;48.768;18.608;2023-07-24T03:22:36;97996.72;;;20.50
11926;BMP180;6022;48.768;18.608;2023-07-24T03:25:04;98002.97;;;20.55
11926;BMP180;6022;48.768;18.608;2023-07-24T03:27:31;98002.63;;;20.58
11926;BMP180;6022;48.768;18.608;2023-07-24T03:29:58;97999.09;;;20.59
11926;BMP180;6022;48.768;18.608;2023-07-24T03:32:26;98007.47;;;20.61
11926;BMP180;6022;48.768;18.608;2023-07-24T03:34:53;98006.50;;;20.62
11926;BMP180;6022;48.768;18.608;2023-07-24T03:37:20;98010.34;;;20.66
11926;BMP180;6022;48.768;18.608;2023-07-24T03:39:50;98012.28;;;20.64
11926;BMP180;6022;48.768;18.608;2023-07-24T03:42:31;98018.09;;;20.66
11926;BMP180;6022;48.768;18.608;2023-07-24T03:44:59;98014.72;;;20.66
11926;BMP180;6022;48.768;18.608;2023-07-24T03:47:26;98011.97;;;20.67
11926;BMP180;6022;48.768;18.608;2023-07-24T03:49:53;98011.19;;;20.67
11926;BMP180;6022;48.768;18.608;2023-07-24T03:52:21;98014.22;;;20.70
11926;BMP180;6022;48.768;18.608;2023-07-24T03:54:48;98014.03;;;20.72
11926;BMP180;6022;48.768;18.608;2023-07-24T03:57:15;98013.19;;;20.79
11926;BMP180;6022;48.768;18.608;2023-07-24T03:59:42;98008.03;;;20.79
11926;BMP180;6022;48.768;18.608;2023-07-24T04:02:10;98016.06;;;20.84
11926;BMP180;6022;48.768;18.608;2023-07-24T04:04:37;98022.84;;;20.85
11926;BMP180;6022;48.768;18.608;2023-07-24T04:07:05;98024.31;;;21.02
11926;BMP180;6022;48.768;18.608;2023-07-24T04:09:32;98021.34;;;21.13
11926;BMP180;6022;48.768;18.608;2023-07-24T04:12:01;98029.84;;;21.21
11926;BMP180;6022;48.768;18.608;2023-07-24T04:14:28;98027.56;;;21.04
11926;BMP180;6022;48.768;18.608;2023-07-24T04:16:55;98029.47;;;21.10
11926;BMP180;6022;48.768;18.608;2023-07-24T04:19:23;98023.09;;;21.20
11926;BMP180;6022;48.768;18.608;2023-07-24T04:21:50;98029.78;;;21.29
11926;BMP180;6022;48.768;18.608;2023-07-24T04:24:18;98018.84;;;21.27
11926;BMP180;6022;48.768;18.608;2023-07-24T04:26:45;98012.72;;;21.50
11926;BMP180;6022;48.768;18.608;2023-07-24T04:29:12;98009.47;;;21.70
11926;BMP180;6022;48.768;18.608;2023-07-24T04:31:40;98006.28;;;21.83
11926;BMP180;6022;48.768;18.608;2023-07-24T04:34:07;98014.38;;;21.80
11926;BMP180;6022;48.768;18.608;2023-07-24T04:36:34;98026.34;;;21.81
11926;BMP180;6022;48.768;18.608;2023-07-24T04:39:01;98024.88;;;21.78
11926;BMP180;6022;48.768;18.608;2023-07-24T04:41:28;98019.22;;;21.83
11926;BMP180;6022;48.768;18.608;2023-07-24T04:43:56;98017.16;;;21.93
11926;BMP180;6022;48.768;18.608;2023-07-24T04:46:23;98012.09;;;21.99
11926;BMP180;6022;48.768;18.608;2023-07-24T04:48:50;98016.25;;;22.22
11926;BMP180;6022;48.768;18.608;2023-07-24T04:51:17;98019.28;;;22.75
11926;BMP180;6022;48.768;18.608;2023-07-24T04:57:12;98033.09;;;23.17
11926;BMP180;6022;48.768;18.608;2023-07-24T04:59:52;98017.63;;;24.46
11926;BMP180;6022;48.768;18.608;2023-07-24T05:02:20;98026.09;;;26.17
11926;BMP180;6022;48.768;18.608;2023-07-24T05:04:50;98025.69;;;27.56
11926;BMP180;6022;48.768;18.608;2023-07-24T05:07:29;98029.03;;;29.18
11926;BMP180;6022;48.768;18.608;2023-07-24T05:10:02;98029.53;;;30.24
11926;BMP180;6022;48.768;18.608;2023-07-24T05:12:42;98030.75;;;31.06
11926;BMP180;6022;48.768;18.608;2023-07-24T05:15:21;98032.50;;;31.88
11926;BMP180;6022;48.768;18.608;2023-07-24T05:17:59;98023.25;;;32.02
11926;BMP180;6022;48.768;18.608;2023-07-24T05:20:26;98021.00;;;32.10
11926;BMP180;6022;48.768;18.608;2023-07-24T05:22:57;98018.75;;;32.35
11926;BMP180;6022;48.768;18.608;2023-07-24T05:25:24;98018.09;;;32.44
11926;BMP180;6022;48.768;18.608;2023-07-24T05:28:10;98019.50;;;33.47
11926;BMP180;6022;48.768;18.608;2023-07-24T05:31:08;98017.41;;;34.11
11926;BMP180;6022;48.768;18.608;2023-07-24T05:33:53;98013.03;;;32.22
11926;BMP180;6022;48.768;18.608;2023-07-24T05:36:22;98018.47;;;30.56
11926;BMP180;6022;48.768;18.608;2023-07-24T05:38:52;98017.78;;;29.58
11926;BMP180;6022;48.768;18.608;2023-07-24T05:41:20;98012.13;;;28.74
11926;BMP180;6022;48.768;18.608;2023-07-24T05:43:48;98015.56;;;27.48
11926;BMP180;6022;48.768;18.608;2023-07-24T05:46:16;98008.00;;;27.65
11926;BMP180;6022;48.768;18.608;2023-07-24T05:48:58;98014.06;;;30.00
11926;BMP180;6022;48.768;18.608;2023-07-24T05:52:21;98010.75;;;31.44
11926;BMP180;6022;48.768;18.608;2023-07-24T05:59:52;98011.63;;;29.53
11926;BMP180;6022;48.768;18.608;2023-07-24T06:06:30;97994.13;;;32.41
11926;BMP180;6022;48.768;18.608;2023-07-24T06:09:50;97995.34;;;32.97
11926;BMP180;6022;48.768;18.608;2023-07-24T06:13:23;97990.84;;;34.78
11926;BMP180;6022;48.768;18.608;2023-07-24T06:15:52;97991.13;;;34.81
11926;BMP180;6022;48.768;18.608;2023-07-24T06:18:19;97995.75;;;35.50
11926;BMP180;6022;48.768;18.608;2023-07-24T06:21:33;97991.28;;;34.50
11926;BMP180;6022;48.768;18.608;2023-07-24T06:23:59;97995.88;;;33.52
11926;BMP180;6022;48.768;18.608;2023-07-24T06:26:28;98000.53;;;33.45
11926;BMP180;6022;48.768;18.608;2023-07-24T06:28:55;98002.47;;;33.02
11926;BMP180;6022;48.768;18.608;2023-07-24T06:31:36;97994.03;;;34.29
11926;BMP180;6022;48.768;18.608;2023-07-24T06:34:04;97998.34;;;33.63
11926;BMP180;6022;48.768;18.608;2023-07-24T06:36:37;97998.06;;;33.07
11926;BMP180;6022;48.768;18.608;2023-07-24T06:39:03;97986.97;;;33.00
11926;BMP180;6022;48.768;18.608;2023-07-24T06:41:30;97989.78;;;33.20
11926;BMP180;6022;48.768;18.608;2023-07-24T06:43:57;97979.03;;;32.53
11926;BMP180;6022;48.768;18.608;2023-07-24T06:46:25;97973.78;;;32.95
11926;BMP180;6022;48.768;18.608;2023-07-24T06:48:52;97972.19;;;32.94
11926;BMP180;6022;48.768;18.608;2023-07-24T06:51:27;97977.38;;;33.42
11926;BMP180;6022;48.768;18.608;2023-07-24T06:53:54;97959.88;;;33.93
11926;BMP180;6022;48.768;18.608;2023-07-24T06:56:21;97965.94;;;33.31
11926;BMP180;6022;48.768;18.608;2023-07-24T06:58:51;97956.25;;;32.58
11926;BMP180;6022;48.768;18.608;2023-07-24T07:01:27;97959.31;;;32.29
11926;BMP180;6022;48.768;18.608;2023-07-24T07:03:54;97952.91;;;32.63
11926;BMP180;6022;48.768;18.608;2023-07-24T07:06:22;97948.69;;;33.76
11926;BMP180;6022;48.768;18.608;2023-07-24T07:08:53;97945.75;;;34.74
11926;BMP180;6022;48.768;18.608;2023-07-24T07:11:20;97945.63;;;35.30
11926;BMP180;6022;48.768;18.608;2023-07-24T07:13:48;97932.41;;;35.80
11926;BMP180;6022;48.768;18.608;2023-07-24T07:16:15;97936.69;;;36.43
11926;BMP180;6022;48.768;18.608;2023-07-24T07:18:44;97930.78;;;36.66
11926;BMP180;6022;48.768;18.608;2023-07-24T07:21:11;97930.28;;;37.02
11926;BMP180;6022;48.768;18.608;2023-07-24T07:23:38;97919.81;;;36.34
11926;BMP180;6022;48.768;18.608;2023-07-24T07:26:05;97910.38;;;36.09
11926;BMP180;6022;48.768;18.608;2023-07-24T07:28:35;97914.00;;;36.85
11926;BMP180;6022;48.768;18.608;2023-07-24T07:31:04;97930.81;;;37.42
11926;BMP180;6022;48.768;18.608;2023-07-24T07:36:43;97910.59;;;38.25
11926;BMP180;6022;48.768;18.608;2023-07-24T07:39:10;97920.44;;;38.02
11926;BMP180;6022;48.768;18.608;2023-07-24T07:41:38;97930.59;;;38.78
11926;BMP180;6022;48.768;18.608;2023-07-24T07:44:05;97923.38;;;38.83
11926;BMP180;6022;48.768;18.608;2023-07-24T07:46:32;97929.03;;;39.32
11926;BMP180;6022;48.768;18.608;2023-07-24T07:49:00;97921.72;;;39.24
11926;BMP180;6022;48.768;18.608;2023-07-24T07:51:27;97916.97;;;39.02
11926;BMP180;6022;48.768;18.608;2023-07-24T07:53:55;97913.63;;;38.97
11926;BMP180;6022;48.768;18.608;2023-07-24T07:56:22;97902.59;;;38.90
11926;BMP180;6022;48.768;18.608;2023-07-24T07:58:50;97910.41;;;37.71
11926;BMP180;6022;48.768;18.608;2023-07-24T08:01:39;97893.06;;;38.29
11926;BMP180;6022;48.768;18.608;2023-07-24T08:04:09;97898.31;;;38.71
11926;BMP180;6022;48.768;18.608;2023-07-24T08:06:36;97901.34;;;37.48
11926;BMP180;6022;48.768;18.608;2023-07-24T08:09:03;97900.00;;;38.49
11926;BMP180;6022;48.768;18.608;2023-07-24T08:11:30;97892.69;;;38.77
11926;BMP180;6022;48.768;18.608;2023-07-24T08:13:59;97890.03;;;38.96
11926;BMP180;6022;48.768;18.608;2023-07-24T08:16:31;97894.63;;;38.90
11926;BMP180;6022;48.768;18.608;2023-07-24T08:18:59;97896.19;;;39.09
11926;BMP180;6022;48.768;18.608;2023-07-24T08:21:26;97884.25;;;38.34
11926;BMP180;6022;48.768;18.608;2023-07-24T08:23:53;97882.63;;;37.91
11926;BMP180;6022;48.768;18.608;2023-07-24T08:26:23;97895.56;;;38.99
11926;BMP180;6022;48.768;18.608;2023-07-24T08:28:56;97890.75;;;39.01
11926;BMP180;6022;48.768;18.608;2023-07-24T08:31:23;97893.31;;;38.88
11926;BMP180;6022;48.768;18.608;2023-07-24T08:33:51;97889.81;;;38.56
11926;BMP180;6022;48.768;18.608;2023-07-24T08:36:18;97876.31;;;39.07
11926;BMP180;6022;48.768;18.608;2023-07-24T08:38:46;97871.03;;;38.89
11926;BMP180;6022;48.768;18.608;2023-07-24T08:41:15;97862.00;;;36.23
11926;BMP180;6022;48.768;18.608;2023-07-24T08:43:43;97867.44;;;36.46
11926;BMP180;6022;48.768;18.608;2023-07-24T08:46:19;97876.88;;;37.84
11926;BMP180;6022;48.768;18.608;2023-07-24T08:48:47;97873.47;;;38.49
11926;BMP180;6022;48.768;18.608;2023-07-24T08:51:17;97873.56;;;38.62
11926;BMP180;6022;48.768;18.608;2023-07-24T08:53:47;97877.84;;;38.40
11926;BMP180;6022;48.768;18.608;2023-07-24T08:56:14;97880.63;;;38.48
11926;BMP180;6022;48.768;18.608;2023-07-24T08:58:42;97873.25;;;38.82
11926;BMP180;6022;48.768;18.608;2023-07-24T09:01:09;97874.34;;;38.99
11926;BMP180;6022;48.768;18.608;2023-07-24T09:03:37;97872.69;;;38.85
11926;BMP180;6022;48.768;18.608;2023-07-24T09:06:05;97861.38;;;39.11
11926;BMP180;6022;48.768;18.608;2023-07-24T09:08:41;97851.78;;;38.97
11926;BMP180;6022;48.768;18.608;2023-07-24T09:11:13;97858.09;;;39.00
11926;BMP180;6022;48.768;18.608;2023-07-24T09:13:42;97851.38;;;38.90
11926;BMP180;6022;48.768;18.608;2023-07-24T09:16:25;97850.84;;;38.56
11926;BMP180;6022;48.768;18.608;2023-07-24T09:18:56;97848.53;;;38.68
11926;BMP180;6022;48.768;18.608;2023-07-24T09:21:36;97847.59;;;38.59
11926;BMP180;6022;48.768;18.608;2023-07-24T09:24:14;97846.94;;;38.85
11926;BMP180;6022;48.768;18.608;2023-07-24T09:26:50;97839.50;;;39.00
11926;BMP180;6022;48.768;18.608;2023-07-24T09:29:19;97830.78;;;38.09
11926;BMP180;6022;48.768;18.608;2023-07-24T09:31:47;97833.09;;;38.70
11926;BMP180;6022;48.768;18.608;2023-07-24T09:34:17;97834.91;;;38.56
11926;BMP180;6022;48.768;18.608;2023-07-24T09:36:47;97832.84;;;38.53
11926;BMP180;6022;48.768;18.608;2023-07-24T09:39:27;97829.78;;;38.78
11926;BMP180;6022;48.768;18.608;2023-07-24T09:42:04;97828.53;;;39.07
11926;BMP180;6022;48.768;18.608;2023-07-24T09:44:34;97814.34;;;39.30
11926;BMP180;6022;48.768;18.608;2023-07-24T09:47:04;97814.34;;;38.98
11926;BMP180;6022;48.768;18.608;2023-07-24T09:49:52;97808.09;;;38.58
11926;BMP180;6022;48.768;18.608;2023-07-24T09:52:21;97803.25;;;39.28
11926;BMP180;6022;48.768;18.608;2023-07-24T09:55:12;97795.47;;;39.31
11926;BMP180;6022;48.768;18.608;2023-07-24T09:57:44;97789.47;;;39.26
11926;BMP180;6022;48.768;18.608;2023-07-24T10:00:15;97779.16;;;38.24
11926;BMP180;6022;48.768;18.608;2023-07-24T10:02:44;97777.22;;;38.48
11926;BMP180;6022;48.768;18.608;2023-07-24T10:05:12;97771.50;;;39.04
11926;BMP180;6022;48.768;18.608;2023-07-24T10:07:40;97770.53;;;39.00
11926;BMP180;6022;48.768;18.608;2023-07-24T10:10:11;97764.25;;;39.10
11926;BMP180;6022;48.768;18.608;2023-07-24T10:12:41;97769.38;;;39.20
11926;BMP180;6022;48.768;18.608;2023-07-24T10:15:10;97768.19;;;39.12
11926;BMP180;6022;48.768;18.608;2023-07-24T10:17:42;97768.13;;;38.86
11926;BMP180;6022;48.768;18.608;2023-07-24T10:20:17;97761.25;;;38.85
11926;BMP180;6022;48.768;18.608;2023-07-24T10:23:11;97743.53;;;38.30
11926;BMP180;6022;48.768;18.608;2023-07-24T10:25:45;97736.78;;;38.56
11926;BMP180;6022;48.768;18.608;2023-07-24T10:28:47;97736.28;;;38.86
11926;BMP180;6022;48.768;18.608;2023-07-24T10:31:26;97732.31;;;38.70
11926;BMP180;6022;48.768;18.608;2023-07-24T10:34:05;97721.53;;;38.80
11926;BMP180;6022;48.768;18.608;2023-07-24T10:36:35;97718.16;;;38.43
11926;BMP180;6022;48.768;18.608;2023-07-24T10:39:16;97724.47;;;38.28
11926;BMP180;6022;48.768;18.608;2023-07-24T10:41:52;97711.34;;;38.55
11926;BMP180;6022;48.768;18.608;2023-07-24T10:44:36;97710.28;;;38.56
11926;BMP180;6022;48.768;18.608;2023-07-24T10:47:16;97705.13;;;38.46
11926;BMP180;6022;48.768;18.608;2023-07-24T10:50:10;97707.16;;;38.36
11926;BMP180;6022;48.768;18.608;2023-07-24T10:52:43;97707.56;;;38.43
11926;BMP180;6022;48.768;18.608;2023-07-24T10:55:10;97696.34;;;38.64
11926;BMP180;6022;48.768;18.608;2023-07-24T10:57:38;97698.97;;;38.32
11926;BMP180;6022;48.768;18.608;2023-07-24T11:00:28;97681.84;;;38.43
11926;BMP180;6022;48.768;18.608;2023-07-24T11:03:17;97676.84;;;38.42
11926;BMP180;6022;48.768;18.608;2023-07-24T11:05:51;97680.25;;;38.42
11926;BMP180;6022;48.768;18.608;2023-07-24T11:08:23;97675.47;;;38.44
11926;BMP180;6022;48.768;18.608;2023-07-24T11:11:03;97671.84;;;38.35
11926;BMP180;6022;48.768;18.608;2023-07-24T11:13:38;97667.72;;;38.29
11926;BMP180;6022;48.768;18.608;2023-07-24T11:16:08;97658.53;;;37.72
11926;BMP180;6022;48.768;18.608;2023-07-24T11:18:50;97647.81;;;37.41
11926;BMP180;6022;48.768;18.608;2023-07-24T11:21:23;97650.03;;;37.34
11926;BMP180;6022;48.768;18.608;2023-07-24T11:23:54;97638.38;;;37.35
11926;BMP180;6022;48.768;18.608;2023-07-24T11:26:25;97629.69;;;37.52
11926;BMP180;6022;48.768;18.608;2023-07-24T11:28:53;97620.31;;;37.60
11926;BMP180;6022;48.768;18.608;2023-07-24T11:31:21;97615.81;;;37.97
11926;BMP180;6022;48.768;18.608;2023-07-24T11:33:52;97624.66;;;38.06
11926;BMP180;6022;48.768;18.608;2023-07-24T11:36:21;97611.13;;;37.89
11926;BMP180;6022;48.768;18.608;2023-07-24T11:38:53;97611.56;;;37.78
11926;BMP180;6022;48.768;18.608;2023-07-24T11:41:23;97615.22;;;38.00
11926;BMP180;6022;48.768;18.608;2023-07-24T11:44:02;97599.72;;;38.07
11926;BMP180;6022;48.768;18.608;2023-07-24T11:46:35;97596.47;;;37.78
11926;BMP180;6022;48.768;18.608;2023-07-24T11:49:41;97578.22;;;37.58
11926;BMP180;6022;48.768;18.608;2023-07-24T11:52:43;97579.44;;;37.47
11926;BMP180;6022;48.768;18.608;2023-07-24T11:55:31;97584.50;;;37.62
11926;BMP180;6022;48.768;18.608;2023-07-24T12:01:13;97570.28;;;37.58
11926;BMP180;6022;48.768;18.608;2023-07-24T12:04:19;97565.19;;;37.25
11926;BMP180;6022;48.768;18.608;2023-07-24T12:07:14;97563.47;;;36.18
11926;BMP180;6022;48.768;18.608;2023-07-24T12:09:54;97568.81;;;36.08
11926;BMP180;6022;48.768;18.608;2023-07-24T12:15:33;97560.63;;;36.66
11926;BMP180;6022;48.768;18.608;2023-07-24T12:18:29;97559.66;;;36.80
11926;BMP180;6022;48.768;18.608;2023-07-24T12:21:27;97549.59;;;36.82
11926;BMP180;6022;48.768;18.608;2023-07-24T12:23:58;97550.97;;;37.21
11926;BMP180;6022;48.768;18.608;2023-07-24T12:26:29;97548.31;;;36.98
11926;BMP180;6022;48.768;18.608;2023-07-24T12:28:56;97555.53;;;36.93
11926;BMP180;6022;48.768;18.608;2023-07-24T12:31:43;97550.59;;;36.63
11926;BMP180;6022;48.768;18.608;2023-07-24T12:34:21;97539.56;;;36.56
11926;BMP180;6022;48.768;18.608;2023-07-24T12:36:52;97536.75;;;36.48
11926;BMP180;6022;48.768;18.608;2023-07-24T12:39:23;97539.84;;;36.31
11926;BMP180;6022;48.768;18.608;2023-07-24T12:42:03;97541.09;;;36.11
11926;BMP180;6022;48.768;18.608;2023-07-24T12:44:41;97538.88;;;35.89
11926;BMP180;6022;48.768;18.608;2023-07-24T12:47:12;97548.69;;;35.46
11926;BMP180;6022;48.768;18.608;2023-07-24T12:50:01;97537.47;;;35.31
11926;BMP180;6022;48.768;18.608;2023-07-24T12:52:34;97523.56;;;35.10
11926;BMP180;6022;48.768;18.608;2023-07-24T12:55:01;97517.53;;;35.05
11926;BMP180;6022;48.768;18.608;2023-07-24T12:57:37;97517.00;;;35.03
11926;BMP180;6022;48.768;18.608;2023-07-24T13:00:15;97513.59;;;35.03
11926;BMP180;6022;48.768;18.608;2023-07-24T13:02:51;97509.34;;;35.11
11926;BMP180;6022;48.768;18.608;2023-07-24T13:05:40;97503.75;;;35.13
11926;BMP180;6022;48.768;18.608;2023-07-24T13:08:26;97499.84;;;35.06
11926;BMP180;6022;48.768;18.608;2023-07-24T13:10:54;97488.66;;;35.28
11926;BMP180;6022;48.768;18.608;2023-07-24T13:13:24;97487.00;;;35.37
11926;BMP180;6022;48.768;18.608;2023-07-24T13:15:53;97476.91;;;35.49
11926;BMP180;6022;48.768;18.608;2023-07-24T13:18:20;97470.66;;;35.35
11926;BMP180;6022;48.768;18.608;2023-07-24T13:20:58;97473.94;;;35.17
11926;BMP180;6022;48.768;18.608;2023-07-24T13:23:27;97460.63;;;34.94
11926;BMP180;6022;48.768;18.608;2023-07-24T13:25:54;97455.22;;;34.71
11926;BMP180;6022;48.768;18.608;2023-07-24T13:28:24;97451.03;;;34.65
11926;BMP180;6022;48.768;18.608;2023-07-24T13:30:55;97449.66;;;34.82
11926;BMP180;6022;48.768;18.608;2023-07-24T13:33:22;97440.88;;;34.92
11926;BMP180;6022;48.768;18.608;2023-07-24T13:35:53;97448.53;;;34.93
11926;BMP180;6022;48.768;18.608;2023-07-24T13:38:22;97436.66;;;34.91
11926;BMP180;6022;48.768;18.608;2023-07-24T13:40:49;97435.16;;;34.75
11926;BMP180;6022;48.768;18.608;2023-07-24T13:43:19;97431.81;;;34.60
11926;BMP180;6022;48.768;18.608;2023-07-24T13:45:56;97435.13;;;34.85
11926;BMP180;6022;48.768;18.608;2023-07-24T13:48:34;97436.84;;;34.51
11926;BMP180;6022;48.768;18.608;2023-07-24T13:51:04;97436.06;;;34.56
11926;BMP180;6022;48.768;18.608;2023-07-24T13:54:07;97426.19;;;34.76
11926;BMP180;6022;48.768;18.608;2023-07-24T13:56:39;97417.81;;;34.64
11926;BMP180;6022;48.768;18.608;2023-07-24T13:59:31;97415.25;;;34.54
11926;BMP180;6022;48.768;18.608;2023-07-24T14:01:59;97401.56;;;34.52
11926;BMP180;6022;48.768;18.608;2023-07-24T14:04:31;97394.94;;;34.60
11926;BMP180;6022;48.768;18.608;2023-07-24T14:07:03;97395.00;;;34.40
11926;BMP180;6022;48.768;18.608;2023-07-24T14:09:30;97384.22;;;34.41
11926;BMP180;6022;48.768;18.608;2023-07-24T14:12:20;97371.88;;;34.37
11926;BMP180;6022;48.768;18.608;2023-07-24T14:14:48;97366.13;;;34.20
11926;BMP180;6022;48.768;18.608;2023-07-24T14:17:15;97354.88;;;33.95
11926;BMP180;6022;48.768;18.608;2023-07-24T14:19:42;97338.31;;;33.94
11926;BMP180;6022;48.768;18.608;2023-07-24T14:22:09;97352.56;;;33.84
11926;BMP180;6022;48.768;18.608;2023-07-24T14:24:36;97354.16;;;33.85
11926;BMP180;6022;48.768;18.608;2023-07-24T14:27:04;97342.03;;;33.84
11926;BMP180;6022;48.768;18.608;2023-07-24T14:29:31;97340.75;;;33.71
11926;BMP180;6022;48.768;18.608;2023-07-24T14:31:58;97342.88;;;33.64
11926;BMP180;6022;48.768;18.608;2023-07-24T14:34:29;97333.41;;;33.58
11926;BMP180;6022;48.768;18.608;2023-07-24T14:36:59;97320.22;;;33.63
11926;BMP180;6022;48.768;18.608;2023-07-24T14:39:29;97313.44;;;33.53
11926;BMP180;6022;48.768;18.608;2023-07-24T14:41:56;97302.41;;;33.16
11926;BMP180;6022;48.768;18.608;2023-07-24T14:44:25;97296.06;;;33.47
11926;BMP180;6022;48.768;18.608;2023-07-24T14:46:52;97286.56;;;33.60
11926;BMP180;6022;48.768;18.608;2023-07-24T14:49:19;97291.28;;;33.68
11926;BMP180;6022;48.768;18.608;2023-07-24T14:51:46;97287.91;;;33.58
11926;BMP180;6022;48.768;18.608;2023-07-24T14:54:14;97279.75;;;33.55
11926;BMP180;6022;48.768;18.608;2023-07-24T14:56:41;97278.41;;;33.62
11926;BMP180;6022;48.768;18.608;2023-07-24T14:59:22;97261.06;;;33.56